Current Weather

Alykel

Alykel, Russia (UOOO)

Report from: Sunday, July 14, 2024 10:30 AM UTC
Current time: Sunday, July 14, 2024 11:02 AM UTC

Nearby weather – Weather history – Daily summaries
Weather forecast

Temperature16.0°C (60.8°F)
Dew point14.0°C (57.2°F)
Winds 7.8 kts (4 m/s, 8.9 mph) West (280°)
Visibility6.2 mi. (10 km)
Clouds Ceiling: Broken clouds 1,400 ft. (427 m)
Altimeter29.88 in.Hg (1012 mB)
Precip. events QF 9:24 PM
Relative humidity88 %
Density altitude382 ft. (116 m)
Remarks No significant changes expected in the next two hours
Flight conditions Marginal Visual Meteorological Conditions
Raw dataUOOO 141030Z 28004MPS 9999 BKN014 16/14 Q1012 R01/CLRD60 NOSIG RMK QFE744/0993
An error has occurred. This application may no longer respond until reloaded. Reload 🗙